Time;durP1;ratioP1;P1;durP2;ratioP2;P2;SDS_P1;SDS_P2;PMS_P1;PMS_P2;Temp;Humidity;BMP_temperature;BMP_pressure;BME280_temperature;BME280_humidity;BME280_pressure;Samples;Min_cycle;Max_cycle;Signal;HPM_P1;HPM_P2
2021/07/01 00:00:43;;;;;;;7.07;5.32;;;22.80;71.80;;;;;;5034920;28;20095;-88
2021/07/01 00:03:08;;;;;;;7.00;4.72;;;22.80;71.90;;;;;;5035221;28;20465;-89
2021/07/01 00:05:34;;;;;;;5.13;4.63;;;22.80;72.60;;;;;;5035559;28;20060;-89
2021/07/01 00:08:00;;;;;;;5.40;4.85;;;22.70;72.00;;;;;;5035218;28;20120;-89
2021/07/01 00:10:27;;;;;;;5.95;4.72;;;22.70;72.10;;;;;;5034829;28;20536;-88
2021/07/01 00:12:54;;;;;;;6.18;4.70;;;22.80;72.30;;;;;;5034671;28;20033;-89
2021/07/01 00:15:22;;;;;;;6.53;5.15;;;22.70;72.30;;;;;;5034717;28;20563;-89
2021/07/01 00:17:48;;;;;;;6.10;5.30;;;22.70;72.50;;;;;;5035925;28;20124;-89
2021/07/01 00:20:14;;;;;;;5.60;4.97;;;22.70;72.60;;;;;;5038378;28;20484;-88
2021/07/01 00:22:40;;;;;;;6.00;4.90;;;22.70;72.80;;;;;;5058289;28;20029;-89
2021/07/01 00:25:09;;;;;;;7.35;5.50;;;22.70;73.00;;;;;;5057238;28;20034;-88
2021/07/01 00:27:35;;;;;;;7.05;5.97;;;22.60;73.10;;;;;;5058784;28;20001;-89
2021/07/01 00:30:01;;;;;;;6.03;5.38;;;22.60;73.30;;;;;;5058338;28;20013;-87
2021/07/01 00:32:27;;;;;;;5.90;5.30;;;22.60;73.40;;;;;;5048319;28;20029;-89
2021/07/01 00:34:53;;;;;;;5.28;4.78;;;22.60;73.50;;;;;;5034677;28;20124;-89
2021/07/01 00:37:18;;;;;;;5.85;5.30;;;22.60;73.70;;;;;;5035343;28;20029;-89
2021/07/01 00:39:44;;;;;;;6.30;5.63;;;22.60;73.90;;;;;;5035702;28;20429;-89
2021/07/01 00:42:10;;;;;;;6.05;5.00;;;22.60;74.10;;;;;;5035201;28;20033;-88
2021/07/01 00:44:35;;;;;;;5.95;5.35;;;22.60;74.30;;;;;;5034545;28;20443;-89
2021/07/01 00:47:01;;;;;;;7.45;5.75;;;22.50;74.40;;;;;;5034818;28;20030;-89
2021/07/01 00:49:27;;;;;;;6.07;5.53;;;22.60;74.50;;;;;;5034300;28;20492;-89
2021/07/01 00:51:53;;;;;;;6.78;6.00;;;22.60;74.70;;;;;;5034146;28;20022;-89
2021/07/01 00:54:19;;;;;;;8.30;6.72;;;22.60;74.80;;;;;;5033796;28;20082;-89
2021/07/01 00:56:45;;;;;;;8.57;7.78;;;22.50;75.10;;;;;;5034102;28;20030;-89
2021/07/01 00:59:11;;;;;;;11.60;7.07;;;22.60;75.70;;;;;;5034147;28;20037;-89
2021/07/01 01:01:40;;;;;;;8.75;6.82;;;22.50;76.00;;;;;;5035131;28;20078;-89
2021/07/01 01:04:06;;;;;;;9.02;7.72;;;22.60;76.10;;;;;;5033990;28;20036;-89
2021/07/01 01:06:32;;;;;;;9.80;7.65;;;22.60;76.90;;;;;;5033808;28;20055;-89
2021/07/01 01:08:58;;;;;;;9.80;7.50;;;22.60;77.50;;;;;;5033930;28;20464;-89
2021/07/01 01:11:27;;;;;;;13.55;7.10;;;22.50;78.10;;;;;;5034887;28;20021;-89
2021/07/01 01:13:54;;;;;;;9.32;6.90;;;22.60;78.80;;;;;;5033638;28;20120;-89
2021/07/01 01:16:20;;;;;;;8.60;7.70;;;22.50;79.50;;;;;;5033798;28;20499;-88
2021/07/01 01:18:46;;;;;;;10.35;8.38;;;22.50;80.50;;;;;;5033466;28;20543;-89
2021/07/01 01:21:13;;;;;;;9.07;8.13;;;22.40;81.40;;;;;;5033592;28;20055;-89
2021/07/01 01:23:39;;;;;;;8.63;7.57;;;22.40;82.10;;;;;;5033276;28;20030;-89
2021/07/01 01:26:06;;;;;;;8.57;7.65;;;22.40;82.60;;;;;;5034383;28;20029;-89
2021/07/01 01:28:32;;;;;;;8.13;7.32;;;22.40;83.30;;;;;;5034046;28;20036;-89
2021/07/01 01:30:58;;;;;;;11.02;8.02;;;22.30;84.30;;;;;;5033095;28;20022;-89
2021/07/01 01:33:25;;;;;;;11.25;7.68;;;22.30;85.00;;;;;;5033447;28;20057;-89
2021/07/01 01:35:50;;;;;;;9.45;8.45;;;22.30;84.90;;;;;;5033362;28;20026;-89
2021/07/01 01:38:17;;;;;;;10.57;8.98;;;22.30;85.80;;;;;;5033153;28;20037;-89
2021/07/01 01:40:44;;;;;;;11.40;8.05;;;22.30;86.30;;;;;;5033956;28;20159;-89
2021/07/01 01:43:10;;;;;;;11.30;8.38;;;22.30;86.00;;;;;;5032754;28;20057;-89
2021/07/01 01:45:40;;;;;;;8.77;7.97;;;22.30;87.60;;;;;;5033255;28;20472;-89
2021/07/01 01:48:06;;;;;;;12.32;9.77;;;22.20;89.90;;;;;;5033268;28;20124;-89
2021/07/01 01:50:33;;;;;;;10.70;9.65;;;22.10;90.30;;;;;;5033274;28;20117;-89
2021/07/01 01:53:00;;;;;;;12.65;11.30;;;21.80;91.30;;;;;;5034142;28;20030;-89
2021/07/01 01:55:25;;;;;;;10.90;9.32;;;21.70;91.90;;;;;;5034361;28;20048;-89
2021/07/01 01:57:52;;;;;;;10.52;9.52;;;21.50;92.20;;;;;;5033037;28;20029;-89
2021/07/01 02:00:22;;;;;;;8.57;7.68;;;21.40;93.10;;;;;;5033085;28;20109;-89
2021/07/01 02:02:48;;;;;;;10.73;8.40;;;21.30;94.70;;;;;;5033490;28;20369;-89
2021/07/01 02:05:14;;;;;;;9.23;8.15;;;21.20;94.60;;;;;;5034704;28;20025;-89
2021/07/01 02:07:40;;;;;;;10.25;7.88;;;21.10;95.00;;;;;;5038283;28;20476;-89
2021/07/01 02:10:15;;;;;;;9.82;6.60;;;21.10;95.10;;;;;;5037214;28;20112;-89
2021/07/01 02:12:41;;;;;;;8.85;6.55;;;21.10;95.60;;;;;;5036878;28;20026;-90
2021/07/01 02:15:09;;;;;;;6.60;6.00;;;21.10;95.30;;;;;;5036929;28;20032;-89
2021/07/01 02:17:36;;;;;;;9.35;6.95;;;21.20;95.50;;;;;;5041450;28;20037;-89
2021/07/01 02:20:11;;;;;;;6.43;5.82;;;21.20;95.40;;;;;;5056692;28;20086;-89
2021/07/01 02:22:39;;;;;;;8.27;6.00;;;21.30;95.20;;;;;;5057701;28;20017;-89
2021/07/01 02:25:07;;;;;;;6.47;5.88;;;21.40;94.60;;;;;;5057274;28;20060;-89
2021/07/01 02:27:33;;;;;;;6.68;5.93;;;21.50;94.20;;;;;;5056152;28;20091;-89
2021/07/01 02:29:59;;;;;;;5.68;4.93;;;21.50;93.90;;;;;;5042907;28;20049;-89
2021/07/01 02:32:25;;;;;;;5.05;4.63;;;21.60;93.70;;;;;;5036905;28;20033;-89
2021/07/01 02:34:51;;;;;;;5.35;4.55;;;21.70;93.60;;;;;;5037153;28;20175;-89
2021/07/01 02:37:17;;;;;;;5.15;4.38;;;21.70;93.40;;;;;;5037248;28;20036;-89
2021/07/01 02:39:43;;;;;;;6.90;5.35;;;21.70;93.40;;;;;;5036325;28;20033;-89
2021/07/01 02:42:08;;;;;;;5.03;4.53;;;21.70;93.70;;;;;;5036606;28;20035;-89
2021/07/01 02:44:35;;;;;;;5.60;4.40;;;21.70;93.60;;;;;;5036596;28;20485;-89
2021/07/01 02:47:01;;;;;;;4.43;3.88;;;21.70;93.50;;;;;;5036243;28;20032;-89
2021/07/01 02:49:26;;;;;;;4.25;3.85;;;21.70;93.40;;;;;;5036466;28;20026;-89
2021/07/01 02:51:52;;;;;;;4.38;3.97;;;21.70;93.40;;;;;;5037387;28;20064;-89
2021/07/01 02:54:19;;;;;;;4.95;3.97;;;21.70;93.50;;;;;;5036867;28;20038;-89
2021/07/01 02:56:45;;;;;;;6.57;4.15;;;21.70;93.60;;;;;;5036302;28;20390;-89
2021/07/01 02:59:14;;;;;;;4.00;3.58;;;21.80;93.80;;;;;;5037277;28;20045;-89
2021/07/01 03:01:40;;;;;;;5.63;4.63;;;21.80;93.90;;;;;;5035934;28;20116;-89
2021/07/01 03:04:05;;;;;;;8.23;4.90;;;21.90;94.00;;;;;;5037175;28;20121;-89
2021/07/01 03:06:31;;;;;;;6.88;5.38;;;22.00;94.00;;;;;;5037038;28;20025;-89
2021/07/01 03:08:59;;;;;;;4.80;4.40;;;22.20;93.80;;;;;;5036250;28;20022;-89
2021/07/01 03:11:26;;;;;;;4.68;4.18;;;22.30;93.60;;;;;;5036001;28;20037;-89
2021/07/01 03:13:52;;;;;;;5.22;4.32;;;22.30;93.40;;;;;;5035705;28;20116;-89
2021/07/01 03:16:19;;;;;;;5.28;4.20;;;22.40;93.30;;;;;;5035622;28;20064;-89
2021/07/01 03:18:53;;;;;;;4.40;3.83;;;22.40;93.10;;;;;;5035814;28;20144;-89
2021/07/01 03:21:20;;;;;;;4.65;3.97;;;22.50;93.10;;;;;;5036257;28;20461;-89
2021/07/01 03:23:46;;;;;;;5.68;5.07;;;22.50;93.10;;;;;;5036762;28;20476;-89
2021/07/01 03:26:13;;;;;;;7.43;4.78;;;22.50;93.10;;;;;;5035871;28;20021;-89
2021/07/01 03:28:39;;;;;;;5.20;4.65;;;22.60;93.10;;;;;;5035433;28;20022;-89
2021/07/01 03:31:06;;;;;;;6.70;5.13;;;22.60;93.10;;;;;;5036080;28;20187;-89
2021/07/01 03:33:32;;;;;;;7.75;5.07;;;22.70;92.90;;;;;;5035202;28;20040;-89
2021/07/01 03:35:59;;;;;;;5.93;5.30;;;22.90;92.90;;;;;;5035447;28;20464;-89
2021/07/01 03:38:24;;;;;;;5.10;4.60;;;22.90;92.60;;;;;;5035420;28;20036;-89
2021/07/01 03:40:50;;;;;;;5.85;5.07;;;23.10;92.30;;;;;;5035246;28;20029;-89
2021/07/01 03:43:16;;;;;;;6.00;5.10;;;23.20;92.10;;;;;;5034771;28;20071;-89
2021/07/01 03:45:42;;;;;;;4.75;4.25;;;23.30;91.80;;;;;;5035381;28;20030;-89
2021/07/01 03:48:08;;;;;;;5.68;5.03;;;23.40;91.70;;;;;;5035358;28;20030;-89
2021/07/01 03:50:34;;;;;;;5.07;4.57;;;23.40;91.50;;;;;;5036143;28;20064;-89
2021/07/01 03:53:00;;;;;;;5.82;5.03;;;23.50;91.40;;;;;;5034927;28;20032;-89
2021/07/01 03:55:25;;;;;;;7.85;5.70;;;23.60;91.30;;;;;;5035180;28;20025;-89
2021/07/01 03:57:51;;;;;;;5.78;5.00;;;23.60;91.30;;;;;;5035064;28;20167;-89
2021/07/01 04:00:17;;;;;;;4.80;4.28;;;23.70;91.20;;;;;;5035415;28;20041;-89
2021/07/01 04:02:43;;;;;;;6.00;4.50;;;23.70;91.10;;;;;;5035273;28;20360;-89
2021/07/01 04:05:09;;;;;;;5.30;4.50;;;23.80;91.10;;;;;;5035947;28;20026;-89
2021/07/01 04:07:35;;;;;;;5.13;4.63;;;23.80;90.90;;;;;;5034743;28;20028;-89
2021/07/01 04:10:07;;;;;;;5.90;4.80;;;23.90;90.90;;;;;;5034655;28;20026;-89
2021/07/01 04:12:33;;;;;;;5.95;4.68;;;23.90;91.10;;;;;;5034997;28;20030;-89
2021/07/01 04:14:59;;;;;;;5.10;4.60;;;23.90;90.90;;;;;;5042002;28;20033;-90
2021/07/01 04:17:25;;;;;;;5.55;4.43;;;23.90;91.00;;;;;;5054022;28;20385;-87
2021/07/01 04:19:51;;;;;;;5.25;4.75;;;23.90;91.00;;;;;;5053389;28;20021;-87
2021/07/01 04:22:16;;;;;;;5.53;5.03;;;24.00;91.00;;;;;;5052661;28;20049;-88
2021/07/01 04:24:42;;;;;;;5.97;5.38;;;24.00;91.10;;;;;;5054084;28;20040;-89
2021/07/01 04:27:08;;;;;;;4.85;4.35;;;24.00;91.10;;;;;;5039236;28;20041;-89
2021/07/01 04:29:33;;;;;;;5.55;5.05;;;24.10;91.20;;;;;;5034878;28;20028;-89
2021/07/01 04:31:59;;;;;;;5.82;5.32;;;24.10;91.30;;;;;;5036119;28;20097;-89
2021/07/01 04:34:25;;;;;;;5.53;5.03;;;24.20;91.30;;;;;;5034657;28;20052;-89
2021/07/01 04:36:51;;;;;;;5.65;5.05;;;24.20;91.10;;;;;;5033970;28;20051;-89
2021/07/01 04:39:17;;;;;;;5.63;4.85;;;24.20;91.10;;;;;;5034043;28;20022;-89
2021/07/01 04:41:43;;;;;;;4.65;4.22;;;24.30;91.00;;;;;;5033991;28;20026;-89
2021/07/01 04:44:09;;;;;;;5.55;4.75;;;24.30;90.80;;;;;;5034790;28;20404;-89
2021/07/01 04:46:35;;;;;;;5.13;4.55;;;24.50;90.80;;;;;;5033697;28;20034;-89
2021/07/01 04:49:01;;;;;;;5.32;4.55;;;24.50;90.70;;;;;;5033961;28;20034;-89
2021/07/01 04:51:27;;;;;;;4.93;4.38;;;24.60;90.70;;;;;;5033761;28;20032;-89
2021/07/01 04:53:53;;;;;;;5.00;4.50;;;24.60;90.70;;;;;;5035114;28;20033;-89
2021/07/01 04:56:19;;;;;;;5.60;4.97;;;24.70;90.70;;;;;;5034262;28;20033;-89
2021/07/01 04:58:45;;;;;;;5.72;5.18;;;24.80;90.60;;;;;;5033553;28;20476;-90
2021/07/01 05:01:11;;;;;;;6.18;5.15;;;24.90;90.50;;;;;;5033503;28;20026;-90
2021/07/01 05:03:37;;;;;;;5.90;5.30;;;24.90;90.50;;;;;;5034801;28;20040;-89
2021/07/01 05:06:03;;;;;;;5.47;4.80;;;25.00;90.40;;;;;;5034526;28;20180;-90
2021/07/01 05:08:29;;;;;;;6.40;5.80;;;25.10;90.30;;;;;;5033437;28;20036;-90
2021/07/01 05:10:55;;;;;;;5.90;5.30;;;25.10;90.10;;;;;;5032959;28;20030;-90
2021/07/01 05:13:21;;;;;;;7.45;5.32;;;25.20;89.80;;;;;;5033438;28;20088;-89
2021/07/01 05:15:47;;;;;;;8.48;5.85;;;25.30;89.50;;;;;;5033744;28;20498;-89
2021/07/01 05:18:12;;;;;;;6.40;5.72;;;25.30;89.20;;;;;;5034418;28;20029;-90
2021/07/01 05:20:39;;;;;;;6.97;6.10;;;25.30;89.10;;;;;;5034601;28;20067;-90
2021/07/01 05:23:04;;;;;;;7.43;6.70;;;25.30;88.70;;;;;;5032790;28;20040;-89
2021/07/01 05:25:31;;;;;;;7.60;6.57;;;25.30;88.50;;;;;;5032924;28;20033;-89
2021/07/01 05:27:57;;;;;;;7.43;6.72;;;25.30;88.50;;;;;;5033454;28;20116;-90
2021/07/01 05:30:23;;;;;;;10.55;9.45;;;25.30;88.70;;;;;;5033525;28;20032;-90
2021/07/01 05:32:48;;;;;;;16.15;12.93;;;25.20;88.60;;;;;;5033614;28;20021;-90
2021/07/01 05:35:14;;;;;;;14.27;11.43;;;25.20;88.10;;;;;;5033995;28;20090;-90
2021/07/01 05:37:40;;;;;;;11.52;10.15;;;25.00;88.20;;;;;;5033915;28;20033;-90
2021/07/01 05:40:07;;;;;;;10.07;9.02;;;24.90;88.60;;;;;;5032881;28;20091;-90
2021/07/01 05:42:33;;;;;;;9.02;8.13;;;24.80;89.00;;;;;;5034200;28;20495;-89
2021/07/01 05:44:59;;;;;;;10.95;9.00;;;24.70;89.30;;;;;;5032767;28;20053;-89
2021/07/01 05:47:24;;;;;;;11.60;10.40;;;24.70;89.60;;;;;;5033352;28;20030;-90
2021/07/01 05:49:50;;;;;;;10.77;9.70;;;24.60;89.60;;;;;;5033196;28;20032;-90
2021/07/01 05:52:24;;;;;;;12.02;10.82;;;24.60;89.60;;;;;;5032566;28;20026;-90
2021/07/01 05:54:57;;;;;;;13.43;12.13;;;24.50;89.80;;;;;;5032816;28;20450;-90
2021/07/01 05:57:25;;;;;;;12.68;11.38;;;24.50;90.00;;;;;;5033453;28;20132;-90
2021/07/01 05:59:51;;;;;;;14.10;11.68;;;24.50;90.00;;;;;;5033842;28;20064;-90
2021/07/01 06:02:16;;;;;;;13.77;12.38;;;24.50;90.20;;;;;;5033968;28;20017;-90
2021/07/01 06:04:42;;;;;;;13.32;11.93;;;24.50;90.10;;;;;;5033004;28;20387;-90
2021/07/01 06:07:10;;;;;;;14.02;12.52;;;24.50;90.00;;;;;;5032798;28;20044;-90
2021/07/01 06:09:38;;;;;;;12.75;11.45;;;24.40;90.00;;;;;;5034869;28;20084;-90
2021/07/01 06:12:04;;;;;;;14.95;13.38;;;24.40;90.00;;;;;;5033275;28;20025;-90
2021/07/01 06:14:30;;;;;;;13.25;10.68;;;24.40;90.10;;;;;;5032673;28;20033;-90
2021/07/01 06:16:59;;;;;;;10.90;9.70;;;24.40;90.10;;;;;;5035108;28;20036;-89
2021/07/01 06:19:25;;;;;;;12.73;11.35;;;24.50;90.20;;;;;;5046933;28;20089;-89
2021/07/01 06:21:52;;;;;;;12.27;11.13;;;24.50;90.00;;;;;;5048584;28;20163;-90
2021/07/01 06:24:19;;;;;;;13.23;11.63;;;24.60;89.70;;;;;;5050328;28;20120;-89
2021/07/01 06:26:47;;;;;;;12.07;10.98;;;24.70;89.60;;;;;;5049928;28;20030;-90
2021/07/01 06:29:14;;;;;;;10.23;9.23;;;24.70;89.80;;;;;;5046382;28;20101;-89
2021/07/01 06:31:40;;;;;;;10.38;9.30;;;24.70;89.80;;;;;;5033842;28;20030;-90
2021/07/01 06:34:07;;;;;;;10.52;9.55;;;24.80;89.90;;;;;;5034476;28;20391;-91
2021/07/01 06:36:35;;;;;;;10.73;9.63;;;24.90;89.70;;;;;;5033725;28;20032;-91
2021/07/01 06:39:04;;;;;;;11.38;10.27;;;25.00;89.40;;;;;;5033930;28;20037;-91
2021/07/01 06:41:32;;;;;;;12.30;11.18;;;25.20;89.30;;;;;;5032720;28;20030;-91
2021/07/01 06:44:00;;;;;;;11.68;10.48;;;25.20;88.80;;;;;;5032272;28;20054;-91
2021/07/01 06:46:31;;;;;;;10.77;9.75;;;25.30;88.70;;;;;;5033106;28;20456;-91
2021/07/01 06:48:57;;;;;;;10.43;9.38;;;25.30;88.50;;;;;;5033309;28;20085;-91
2021/07/01 06:51:23;;;;;;;13.55;11.43;;;25.40;88.60;;;;;;5034000;28;20030;-91
2021/07/01 06:53:51;;;;;;;11.18;10.07;;;25.40;88.20;;;;;;5035541;28;20026;-91
2021/07/01 06:56:20;;;;;;;11.73;10.63;;;25.30;88.20;;;;;;5035948;28;20029;-90
2021/07/01 06:58:45;;;;;;;11.27;10.13;;;25.40;88.30;;;;;;5035929;28;20052;-91
2021/07/01 07:01:11;;;;;;;10.27;9.20;;;25.50;88.30;;;;;;5035453;28;20033;-90
2021/07/01 07:03:38;;;;;;;11.18;8.65;;;25.60;87.90;;;;;;5036633;28;20080;-91
2021/07/01 07:06:05;;;;;;;9.73;8.68;;;25.80;87.50;;;;;;5035811;28;20029;-90
2021/07/01 07:08:31;;;;;;;10.93;8.75;;;25.90;87.10;;;;;;5035998;28;20103;-91
2021/07/01 07:10:58;;;;;;;9.60;8.60;;;26.10;86.60;;;;;;5036926;28;20428;-90
2021/07/01 07:13:25;;;;;;;9.32;8.43;;;26.30;86.00;;;;;;5037071;28;20083;-90
2021/07/01 07:15:53;;;;;;;9.82;8.90;;;26.50;85.40;;;;;;5036169;28;20033;-90
2021/07/01 07:18:23;;;;;;;9.45;8.55;;;26.70;84.60;;;;;;5035717;28;20032;-90
2021/07/01 07:20:54;;;;;;;10.82;8.68;;;26.80;83.20;;;;;;5036093;28;20053;-91
2021/07/01 07:23:30;;;;;;;11.48;10.30;;;26.90;82.40;;;;;;5035825;28;20088;-91
2021/07/01 07:25:57;;;;;;;11.18;9.52;;;27.10;82.50;;;;;;5036313;28;20029;-91
2021/07/01 07:28:24;;;;;;;9.48;8.50;;;27.10;82.20;;;;;;5035284;28;20469;-91
2021/07/01 07:30:53;;;;;;;11.05;9.23;;;27.20;82.30;;;;;;5035679;28;20029;-91
2021/07/01 07:33:25;;;;;;;8.35;7.50;;;27.30;81.70;;;;;;5037174;28;20029;-91
2021/07/01 07:35:51;;;;;;;7.20;6.43;;;27.50;81.00;;;;;;5038157;28;20030;-90
2021/07/01 07:38:20;;;;;;;10.02;7.72;;;27.70;80.20;;;;;;5036516;28;20108;-91
2021/07/01 07:40:49;;;;;;;8.05;7.15;;;27.80;79.20;;;;;;5035391;28;20044;-91
2021/07/01 07:43:18;;;;;;;7.40;6.65;;;27.90;78.60;;;;;;5035788;28;20072;-92
2021/07/01 07:45:44;;;;;;;8.27;7.47;;;28.10;77.90;;;;;;5035200;28;20025;-91
2021/07/01 07:48:09;;;;;;;8.23;7.47;;;28.30;77.30;;;;;;5034896;28;20373;-91
2021/07/01 07:50:38;;;;;;;8.18;7.47;;;28.60;76.30;;;;;;5035166;28;20029;-91
2021/07/01 07:53:17;;;;;;;7.63;6.93;;;28.70;74.80;;;;;;5035105;28;20365;-91
2021/07/01 07:55:46;;;;;;;6.65;6.07;;;28.80;74.00;;;;;;5036097;28;20029;-91
2021/07/01 07:58:18;;;;;;;7.57;6.57;;;28.90;73.50;;;;;;5038799;28;20025;-91
2021/07/01 08:00:44;;;;;;;7.32;6.63;;;28.90;73.00;;;;;;5040232;28;20032;-91
2021/07/01 08:03:11;;;;;;;11.13;6.72;;;29.00;72.70;;;;;;5037029;28;20460;-89
2021/07/01 08:05:40;;;;;;;7.03;6.32;;;29.10;72.60;;;;;;5038352;28;20033;-91
2021/07/01 08:08:12;;;;;;;7.05;6.45;;;29.20;72.20;;;;;;5035567;28;20030;-90
2021/07/01 08:10:40;;;;;;;7.57;6.53;;;29.20;72.00;;;;;;5037149;28;20026;-90
2021/07/01 08:13:06;;;;;;;8.90;6.53;;;29.40;71.80;;;;;;5035458;28;20044;-90
2021/07/01 08:15:39;;;;;;;7.78;7.05;;;29.60;71.40;;;;;;5034932;28;20063;-91
2021/07/01 08:18:07;;;;;;;7.18;6.55;;;29.70;70.80;;;;;;5028610;28;20196;-91
2021/07/01 08:20:34;;;;;;;8.07;7.00;;;29.70;70.20;;;;;;5016787;28;20026;-90
2021/07/01 08:23:00;;;;;;;7.78;6.97;;;29.80;69.70;;;;;;5017358;28;20057;-89
2021/07/01 08:25:30;;;;;;;8.10;7.30;;;29.90;69.50;;;;;;5002952;28;20034;-89
2021/07/01 08:27:57;;;;;;;7.82;7.10;;;29.90;69.00;;;;;;5026767;28;20057;-88
2021/07/01 08:30:26;;;;;;;6.85;6.20;;;30.00;68.60;;;;;;5032028;28;20057;-89
2021/07/01 08:32:56;;;;;;;8.70;7.80;;;30.00;68.20;;;;;;5040685;28;20029;-89
2021/07/01 08:35:25;;;;;;;9.13;8.23;;;30.00;68.10;;;;;;5048659;28;20057;-92
2021/07/01 08:37:53;;;;;;;9.00;8.20;;;30.00;67.50;;;;;;5038384;28;20061;-91
2021/07/01 08:40:20;;;;;;;8.48;7.07;;;29.80;67.30;;;;;;5022496;28;20026;-92
2021/07/01 08:42:54;;;;;;;8.23;7.43;;;29.80;67.70;;;;;;5020603;28;20042;-93
2021/07/01 08:45:28;;;;;;;9.18;8.35;;;29.80;67.90;;;;;;5015971;28;20050;-92
2021/07/01 08:48:00;;;;;;;9.50;7.95;;;29.80;67.70;;;;;;5031764;28;20037;-91
2021/07/01 08:50:31;;;;;;;8.88;8.07;;;29.90;67.50;;;;;;5035240;28;20040;-92
2021/07/01 08:53:17;;;;;;;9.90;8.95;;;30.10;67.40;;;;;;5019265;28;20109;-93
2021/07/01 08:55:44;;;;;;;8.50;7.70;;;30.20;66.30;;;;;;5025401;28;20070;-92
2021/07/01 08:58:23;;;;;;;8.52;7.70;;;30.20;66.10;;;;;;5031553;28;20124;-91
2021/07/01 09:00:50;;;;;;;8.25;7.47;;;30.20;66.50;;;;;;5027903;28;20030;-91
2021/07/01 09:03:18;;;;;;;8.25;7.55;;;30.30;66.30;;;;;;5014191;28;20217;-91
2021/07/01 09:05:46;;;;;;;9.25;7.65;;;30.40;65.90;;;;;;5022025;28;20120;-90
2021/07/01 09:08:14;;;;;;;8.52;7.78;;;30.40;65.70;;;;;;5018979;28;20037;-89
2021/07/01 09:10:51;;;;;;;10.60;8.32;;;30.50;65.60;;;;;;5021044;28;20504;-90
2021/07/01 09:13:20;;;;;;;13.43;8.68;;;30.60;65.30;;;;;;5033343;28;20033;-91
2021/07/01 09:15:52;;;;;;;9.48;8.57;;;30.70;65.20;;;;;;5022785;28;20032;-92
2021/07/01 09:18:41;;;;;;;7.90;7.20;;;30.80;64.90;;;;;;5028371;28;20120;-91
2021/07/01 09:21:09;;;;;;;9.48;7.30;;;30.90;64.50;;;;;;5020141;28;20459;-94
2021/07/01 09:23:44;;;;;;;7.75;7.00;;;31.00;64.80;;;;;;5017966;28;20064;-92
2021/07/01 09:26:20;;;;;;;7.43;6.72;;;31.10;64.30;;;;;;5019520;28;20080;-92
2021/07/01 09:28:52;;;;;;;9.65;8.60;;;31.30;64.10;;;;;;5021397;28;20080;-94
2021/07/01 09:31:20;;;;;;;11.38;10.27;;;31.40;64.00;;;;;;5020384;28;20101;-94
2021/07/01 09:34:11;;;;;;;11.20;10.10;;;31.40;63.90;;;;;;5035412;28;20030;-94
2021/07/01 09:36:55;;;;;;;12.43;11.23;;;31.30;63.80;;;;;;5033171;28;20041;-95
2021/07/01 09:39:22;;;;;;;11.85;10.60;;;31.30;64.20;;;;;;5029019;28;20029;-94
2021/07/01 09:41:52;;;;;;;11.35;10.13;;;31.40;64.40;;;;;;5011591;28;20084;-92
2021/07/01 09:44:18;;;;;;;13.77;12.38;;;31.40;64.20;;;;;;5021155;28;20049;-93
2021/07/01 09:46:48;;;;;;;14.30;12.90;;;31.30;64.00;;;;;;5033580;28;20026;-93
2021/07/01 09:49:23;;;;;;;13.32;12.00;;;31.20;64.20;;;;;;5034767;28;20021;-93
2021/07/01 09:51:54;;;;;;;13.43;12.23;;;31.00;64.40;;;;;;5014950;28;20045;-93
2021/07/01 09:54:28;;;;;;;16.90;14.02;;;30.70;64.70;;;;;;5016270;28;20080;-92
2021/07/01 09:57:15;;;;;;;15.75;13.20;;;30.60;65.30;;;;;;5016785;28;20121;-92
2021/07/01 09:59:48;;;;;;;12.30;11.02;;;30.30;65.80;;;;;;5027572;28;20115;-92
2021/07/01 10:02:29;;;;;;;;;;;30.10;66.40;;;;;;5036110;28;20057;-95
2021/07/01 10:05:00;;;;;;;13.48;12.10;;;30.00;66.80;;;;;;5032474;28;20015;-94
2021/07/01 10:07:27;;;;;;;12.25;11.05;;;30.00;67.20;;;;;;5034081;28;20040;-92
2021/07/01 10:09:58;;;;;;;11.65;10.45;;;29.90;67.30;;;;;;5033034;28;20021;-94
2021/07/01 10:12:30;;;;;;;11.32;10.25;;;29.90;67.50;;;;;;5035936;28;20029;-94
2021/07/01 10:14:58;;;;;;;11.77;10.68;;;29.90;67.60;;;;;;5022213;28;20048;-96
2021/07/01 10:17:35;;;;;;;12.35;11.15;;;29.80;67.60;;;;;;5038037;28;20033;-96
2021/07/01 10:20:13;;;;;;;12.45;11.25;;;29.70;67.70;;;;;;5021317;28;20409;-96
2021/07/01 10:22:43;;;;;;;13.38;11.98;;;29.60;68.10;;;;;;5040455;28;20113;-96
2021/07/01 10:25:28;;;;;;;13.48;12.18;;;29.50;68.30;;;;;;5037788;28;20053;-94
2021/07/01 10:27:57;;;;;;;13.20;11.90;;;29.40;68.80;;;;;;5038635;28;20045;-93
2021/07/01 10:30:24;;;;;;;14.23;12.52;;;29.30;69.00;;;;;;5039936;28;20365;-95
2021/07/01 10:32:54;;;;;;;12.75;11.65;;;29.30;69.40;;;;;;5042023;28;20026;-95
2021/07/01 10:35:39;;;;;;;12.18;10.98;;;29.30;69.40;;;;;;5046781;28;20079;-96
2021/07/01 10:38:14;;;;;;;14.25;12.48;;;29.50;69.60;;;;;;5040031;28;20125;-94
2021/07/01 10:40:48;;;;;;;13.27;11.73;;;29.50;69.10;;;;;;5015812;28;20018;-91
2021/07/01 10:43:17;;;;;;;13.80;12.32;;;29.70;69.10;;;;;;5043389;28;20026;-91
2021/07/01 10:45:59;;;;;;;13.02;11.82;;;29.80;69.00;;;;;;5044306;28;20057;-91
2021/07/01 10:48:26;;;;;;;12.43;10.95;;;29.80;68.70;;;;;;5028789;28;20469;-92
2021/07/01 10:50:54;;;;;;;14.20;10.68;;;29.90;68.80;;;;;;5031906;28;20100;-93
2021/07/01 10:53:44;;;;;;;11.18;10.02;;;30.10;68.70;;;;;;5036691;28;20013;-90
2021/07/01 10:56:16;;;;;;;12.05;10.85;;;30.20;68.20;;;;;;5015846;28;20038;-90
2021/07/01 10:58:43;;;;;;;11.47;10.47;;;30.30;68.00;;;;;;5015960;28;20026;-90
2021/07/01 11:01:21;;;;;;;11.50;10.27;;;30.50;67.90;;;;;;5022998;28;20037;-92
2021/07/01 11:03:47;;;;;;;11.13;10.02;;;30.60;67.60;;;;;;5017962;28;20037;-94
2021/07/01 11:06:16;;;;;;;13.48;10.93;;;30.70;67.50;;;;;;5026668;28;20187;-92
2021/07/01 11:08:53;;;;;;;12.48;11.35;;;30.80;67.30;;;;;;5019075;28;20487;-92
2021/07/01 11:11:21;;;;;;;11.93;10.73;;;30.90;66.90;;;;;;5023688;28;20160;-93
2021/07/01 11:13:55;;;;;;;11.38;10.38;;;30.90;67.50;;;;;;5019905;28;20026;-92
2021/07/01 11:16:31;;;;;;;13.10;11.80;;;30.90;66.30;;;;;;5029765;28;20030;-93
2021/07/01 11:18:57;;;;;;;12.48;11.27;;;30.90;66.40;;;;;;5015256;28;20026;-93
2021/07/01 11:21:24;;;;;;;11.88;10.70;;;30.90;66.40;;;;;;5021882;28;20456;-93
2021/07/01 11:24:15;;;;;;;11.68;10.23;;;30.90;66.50;;;;;;5024975;28;20481;-93
2021/07/01 11:26:42;;;;;;;12.65;11.45;;;30.90;66.60;;;;;;5034319;28;20141;-93
2021/07/01 11:29:10;;;;;;;12.77;11.60;;;30.90;66.60;;;;;;5019529;28;20090;-94
2021/07/01 11:31:41;;;;;;;12.40;11.13;;;31.00;66.60;;;;;;5061431;22;20061;-94
2021/07/01 11:34:12;;;;;;;13.83;11.67;;;31.00;66.60;;;;;;5035010;28;20029;-95
2021/07/01 11:36:46;;;;;;;12.57;11.15;;;30.90;66.40;;;;;;5032882;28;20033;-95
2021/07/01 11:39:16;;;;;;;11.98;10.77;;;30.90;66.40;;;;;;5034760;28;20025;-93
2021/07/01 11:41:45;;;;;;;12.35;11.13;;;30.90;66.40;;;;;;5036933;28;20030;-94
2021/07/01 11:44:12;;;;;;;11.65;10.45;;;30.90;66.40;;;;;;5025645;28;20034;-91
2021/07/01 11:46:41;;;;;;;11.55;10.45;;;30.90;66.50;;;;;;5034996;28;20026;-90
2021/07/01 11:49:08;;;;;;;15.20;10.63;;;30.90;66.40;;;;;;5033706;28;20033;-92
2021/07/01 11:51:36;;;;;;;12.60;10.85;;;30.90;66.50;;;;;;5034230;28;20061;-92
2021/07/01 11:54:05;;;;;;;11.02;10.02;;;30.80;66.50;;;;;;5033201;28;20124;-91
2021/07/01 11:56:54;;;;;;;12.93;11.73;;;30.80;66.70;;;;;;5034142;28;20029;-91
2021/07/01 11:59:28;;;;;;;12.10;11.00;;;30.80;66.80;;;;;;5029220;28;20392;-91
2021/07/01 12:01:56;;;;;;;12.35;10.85;;;30.90;66.80;;;;;;5033603;28;20033;-93
2021/07/01 12:04:34;;;;;;;12.05;10.82;;;30.90;66.70;;;;;;5039652;28;20042;-93
2021/07/01 12:07:24;;;;;;;11.15;10.02;;;31.00;66.70;;;;;;5040455;28;20041;-93
2021/07/01 12:09:51;;;;;;;12.15;10.98;;;31.00;66.40;;;;;;5043368;28;20025;-92
2021/07/01 12:12:26;;;;;;;9.88;8.90;;;31.10;66.20;;;;;;5043694;28;20026;-92
2021/07/01 12:15:10;;;;;;;10.48;9.27;;;31.40;66.10;;;;;;5041293;28;20021;-92
2021/07/01 12:18:05;;;;;;;14.23;11.32;;;31.80;66.10;;;;;;5040581;28;20017;-93
2021/07/01 12:20:54;;;;;;;11.07;9.70;;;32.30;65.80;;;;;;5043209;28;20097;-92
2021/07/01 12:23:23;;;;;;;10.45;9.35;;;32.80;64.60;;;;;;5041386;28;20100;-92
2021/07/01 12:25:53;;;;;;;8.88;7.97;;;33.20;64.90;;;;;;5024733;28;20033;-93
2021/07/01 12:28:27;;;;;;;7.35;6.65;;;33.70;64.20;;;;;;5042128;28;20029;-93
2021/07/01 12:31:21;;;;;;;10.45;9.38;;;34.30;62.10;;;;;;5035861;28;20062;-93
2021/07/01 12:44:28;;;;;;;8.88;7.75;;;36.30;57.30;;;;;;4975844;28;20059;-93
2021/07/01 12:47:14;;;;;;;8.98;8.15;;;36.30;57.00;;;;;;4975454;28;20045;-93
2021/07/01 12:49:40;;;;;;;8.88;8.07;;;36.40;57.60;;;;;;4987889;28;20062;-92
2021/07/01 12:52:12;;;;;;;8.63;7.53;;;36.50;56.70;;;;;;4996029;28;20068;-92
2021/07/01 12:54:40;;;;;;;7.60;6.80;;;36.60;56.70;;;;;;4996893;28;20019;-93
2021/07/01 12:57:11;;;;;;;8.00;7.32;;;36.90;56.90;;;;;;4996152;28;20050;-92
2021/07/01 12:59:45;;;;;;;7.47;6.55;;;37.30;56.20;;;;;;4995265;28;20082;-93